createdAt,value
2023-01-13T00:00:13.727Z,5.24
2023-01-13T00:02:42.023Z,5.28
2023-01-13T00:05:10.709Z,5.25
2023-01-13T00:07:41.767Z,5.30
2023-01-13T00:10:13.654Z,5.28
2023-01-13T00:12:45.185Z,5.24
2023-01-13T00:15:14.473Z,5.24
2023-01-13T00:17:43.111Z,5.26
2023-01-13T00:20:12.922Z,5.21
2023-01-13T00:22:41.427Z,5.22
2023-01-13T00:25:11.334Z,5.21
2023-01-13T00:27:40.325Z,5.18
2023-01-13T00:30:11.821Z,5.20
2023-01-13T00:32:46.457Z,4.97
2023-01-13T00:35:14.663Z,4.91
2023-01-13T00:37:43.969Z,4.89
2023-01-13T00:40:17.806Z,4.86
2023-01-13T00:43:04.358Z,4.87
2023-01-13T00:45:33.185Z,4.84
2023-01-13T00:48:02.362Z,4.85
2023-01-13T00:50:30.832Z,4.77
2023-01-13T01:06:26.859Z,4.69
2023-01-13T01:08:55.702Z,4.69
2023-01-13T01:11:28.311Z,4.63
2023-01-13T01:13:56.788Z,4.59
2023-01-13T01:16:26.523Z,4.63
2023-01-13T01:18:54.477Z,4.58
2023-01-13T01:21:23.946Z,4.53
2023-01-13T01:23:53.025Z,4.55
2023-01-13T01:26:23.388Z,4.57
2023-01-13T01:28:50.877Z,4.61
2023-01-13T01:31:24.956Z,4.64
2023-01-13T01:33:53.929Z,4.65
2023-01-13T01:36:21.950Z,4.60
2023-01-13T01:38:49.417Z,4.63
2023-01-13T01:41:23.354Z,4.60
2023-01-13T01:44:00.599Z,4.64
2023-01-13T01:46:41.421Z,4.59
2023-01-13T01:49:27.111Z,4.51
2023-01-13T01:52:19.877Z,4.48
2023-01-13T01:54:57.661Z,4.55
2023-01-13T01:57:31.682Z,4.55
2023-01-13T01:59:59.539Z,4.56
2023-01-13T02:02:29.471Z,4.62
2023-01-13T02:04:58.056Z,4.61
2023-01-13T02:07:28.219Z,4.68
2023-01-13T02:09:56.819Z,4.75
2023-01-13T02:12:32.103Z,4.84
2023-01-13T02:15:10.850Z,4.83
2023-01-13T02:17:44.779Z,4.85
2023-01-13T02:20:30.367Z,4.77
2023-01-13T02:23:41.245Z,4.76
2023-01-13T02:26:23.778Z,4.76
2023-01-13T02:29:18.282Z,4.75
2023-01-13T02:31:46.481Z,4.74
2023-01-13T02:34:41.658Z,4.68
2023-01-13T02:37:20.346Z,4.74
2023-01-13T02:40:07.245Z,4.71
2023-01-13T02:42:54.592Z,4.79
2023-01-13T02:45:28.525Z,4.70
2023-01-13T02:47:57.318Z,4.65
2023-01-13T02:50:28.874Z,4.61
2023-01-13T02:53:16.051Z,4.67
2023-01-13T02:55:47.475Z,4.57
2023-01-13T02:58:18.303Z,4.64
2023-01-13T03:00:46.478Z,4.60
2023-01-13T03:03:14.858Z,4.73
2023-01-13T03:05:42.565Z,4.59
2023-01-13T03:09:01.524Z,4.56
2023-01-13T03:11:32.996Z,4.50
2023-01-13T03:14:29.068Z,4.61
2023-01-13T03:17:19.087Z,4.56
2023-01-13T03:19:58.215Z,4.55
2023-01-13T03:22:39.324Z,4.49
2023-01-13T03:25:13.484Z,4.47
2023-01-13T03:27:50.108Z,4.48
2023-01-13T03:30:41.372Z,4.41
2023-01-13T03:33:54.083Z,4.34
2023-01-13T03:36:23.187Z,4.33
2023-01-13T03:38:53.565Z,4.33
2023-01-13T03:41:28.041Z,4.30
2023-01-13T03:44:19.991Z,4.25
2023-01-13T03:47:05.356Z,4.19
2023-01-13T03:49:50.316Z,4.17
2023-01-13T03:52:21.082Z,4.14
2023-01-13T03:54:51.774Z,4.06
2023-01-13T03:57:20.741Z,4.06
2023-01-13T03:59:49.024Z,4.11
2023-01-13T04:02:58.392Z,4.16
2023-01-13T04:05:30.151Z,4.15
2023-01-13T04:08:03.252Z,4.15
2023-01-13T04:10:41.855Z,4.27
2023-01-13T04:13:11.206Z,4.28
2023-01-13T04:15:43.986Z,4.28
2023-01-13T04:18:22.471Z,4.23
2023-01-13T04:20:52.554Z,4.26
2023-01-13T04:23:22.927Z,4.21
2023-01-13T04:25:51.881Z,4.05
2023-01-13T04:28:20.496Z,4.03
2023-01-13T04:30:48.570Z,4.05
2023-01-13T04:33:17.031Z,3.98
2023-01-13T04:35:46.065Z,4.01
2023-01-13T04:38:16.266Z,4.05
2023-01-13T04:40:50.312Z,3.82
2023-01-13T04:43:18.955Z,4.01
2023-01-13T04:45:47.831Z,3.93
2023-01-13T04:48:16.952Z,3.86
2023-01-13T04:50:45.543Z,3.84
2023-01-13T04:53:14.487Z,3.81
2023-01-13T04:55:42.437Z,3.83
2023-01-13T04:58:10.354Z,3.84
2023-01-13T05:00:38.629Z,3.76
2023-01-13T05:03:07.619Z,3.76
2023-01-13T05:05:35.838Z,3.76
2023-01-13T05:08:04.628Z,3.77
2023-01-13T05:10:33.051Z,3.77
2023-01-13T05:13:22.054Z,3.73
2023-01-13T05:16:11.243Z,3.75
2023-01-13T05:18:39.831Z,3.78
2023-01-13T05:21:27.895Z,3.74
2023-01-13T05:24:14.495Z,3.81
2023-01-13T05:26:43.262Z,3.74
2023-01-13T05:29:12.182Z,3.72
2023-01-13T05:31:40.592Z,3.79
2023-01-13T05:34:08.952Z,3.83
2023-01-13T05:36:37.903Z,3.67
2023-01-13T05:39:06.360Z,3.67
2023-01-13T05:41:53.280Z,3.68
2023-01-13T05:44:22.425Z,3.65
2023-01-13T05:46:50.219Z,3.68
2023-01-13T05:49:18.491Z,3.69
2023-01-13T05:51:46.894Z,3.69
2023-01-13T05:54:15.691Z,3.69
2023-01-13T05:56:44.179Z,3.74
2023-01-13T05:59:13.080Z,3.84
2023-01-13T06:01:41.254Z,3.90
2023-01-13T06:04:09.685Z,3.91
2023-01-13T06:06:39.309Z,3.93
2023-01-13T06:09:08.944Z,3.85
2023-01-13T06:11:55.972Z,3.81
2023-01-13T06:14:25.611Z,3.83
2023-01-13T06:17:16.637Z,3.80
2023-01-13T06:19:51.468Z,3.72
2023-01-13T06:22:28.765Z,3.66
2023-01-13T06:25:00.852Z,3.64
2023-01-13T06:27:36.301Z,3.57
2023-01-13T06:30:05.646Z,3.52
2023-01-13T06:32:42.431Z,3.44
2023-01-13T06:35:13.011Z,3.48
2023-01-13T06:37:42.768Z,3.46
2023-01-13T06:40:12.908Z,3.55
2023-01-13T06:42:59.947Z,3.58
2023-01-13T06:45:27.444Z,3.68
2023-01-13T06:47:57.523Z,3.69
2023-01-13T06:50:26.704Z,3.62
2023-01-13T06:52:55.287Z,3.60
2023-01-13T06:55:24.148Z,3.60
2023-01-13T06:57:56.475Z,3.69
2023-01-13T07:00:24.058Z,3.57
2023-01-13T07:02:53.161Z,3.45
2023-01-13T07:05:21.834Z,3.47
2023-01-13T07:07:51.246Z,3.53
2023-01-13T07:10:22.608Z,3.65
2023-01-13T07:13:11.396Z,3.70
2023-01-13T07:15:40.602Z,3.78
2023-01-13T07:18:09.615Z,3.73
2023-01-13T07:20:41.482Z,3.66
2023-01-13T07:23:12.806Z,3.69
2023-01-13T07:25:41.315Z,3.75
2023-01-13T07:28:09.917Z,3.73
2023-01-13T07:30:40.951Z,3.87
2023-01-13T07:33:09.077Z,3.84
2023-01-13T07:35:38.680Z,3.88
2023-01-13T07:38:08.939Z,3.93
2023-01-13T07:40:37.658Z,3.97
2023-01-13T07:43:24.439Z,4.03
2023-01-13T07:46:21.345Z,3.96
2023-01-13T07:48:51.033Z,4.09
2023-01-13T07:51:19.580Z,4.12
2023-01-13T07:53:48.097Z,4.14
2023-01-13T07:56:16.135Z,4.21
2023-01-13T07:58:50.669Z,4.07
2023-01-13T08:01:19.313Z,4.00
2023-01-13T08:03:48.011Z,4.10
2023-01-13T08:06:16.908Z,4.17
2023-01-13T08:08:45.289Z,4.24
2023-01-13T08:11:13.705Z,4.41
2023-01-13T08:13:43.210Z,4.38
2023-01-13T08:16:14.154Z,4.39
2023-01-13T08:18:43.497Z,4.48
2023-01-13T08:21:12.519Z,4.49
2023-01-13T08:23:44.519Z,4.59
2023-01-13T08:26:15.320Z,4.69
2023-01-13T08:28:44.018Z,4.86
2023-01-13T08:31:17.214Z,4.91
2023-01-13T08:33:45.447Z,4.99
2023-01-13T08:36:14.037Z,5.01
2023-01-13T08:38:48.705Z,4.95
2023-01-13T08:41:40.593Z,5.05
2023-01-13T08:44:09.553Z,5.14
2023-01-13T08:46:43.209Z,5.24
2023-01-13T08:49:11.988Z,5.35
2023-01-13T08:51:43.456Z,5.47
2023-01-13T08:54:12.643Z,5.57
2023-01-13T08:56:43.005Z,5.67
2023-01-13T08:59:25.462Z,5.84
2023-01-13T09:01:57.111Z,5.85
2023-01-13T09:04:28.892Z,5.92
2023-01-13T09:07:00.583Z,6.05
2023-01-13T09:09:34.313Z,6.14
2023-01-13T09:12:21.082Z,6.24
2023-01-13T09:14:51.924Z,6.28
2023-01-13T09:17:20.486Z,6.44
2023-01-13T09:19:48.792Z,6.53
2023-01-13T09:22:18.060Z,6.67
2023-01-13T09:24:48.122Z,6.72
2023-01-13T09:27:16.788Z,6.93
2023-01-13T09:29:45.033Z,6.93
2023-01-13T09:32:14.416Z,6.84
2023-01-13T09:35:01.028Z,6.84
2023-01-13T09:37:35.354Z,6.85
2023-01-13T09:40:20.586Z,6.93
2023-01-13T09:43:11.581Z,6.98
2023-01-13T09:45:47.509Z,7.00
2023-01-13T09:48:20.623Z,6.99
2023-01-13T09:50:59.403Z,7.10
2023-01-13T09:53:33.152Z,7.15
2023-01-13T09:56:10.410Z,7.18
2023-01-13T09:58:43.978Z,7.20
2023-01-13T10:01:14.726Z,7.23
2023-01-13T10:03:43.452Z,7.18
2023-01-13T10:06:33.389Z,7.27
2023-01-13T10:09:02.399Z,7.37
2023-01-13T10:12:01.572Z,7.26
2023-01-13T10:15:04.577Z,7.45
2023-01-13T10:17:46.968Z,7.61
2023-01-13T10:20:24.924Z,7.55
2023-01-13T10:23:05.605Z,7.43
2023-01-13T10:26:07.464Z,7.45
2023-01-13T10:28:39.086Z,7.53
2023-01-13T10:31:14.796Z,7.61
2023-01-13T10:33:44.267Z,7.67
2023-01-13T10:36:16.289Z,7.60
2023-01-13T10:38:49.021Z,7.63
2023-01-13T10:41:16.415Z,7.67
2023-01-13T10:43:58.309Z,7.69
2023-01-13T10:46:27.306Z,7.73
2023-01-13T10:48:59.604Z,7.68
2023-01-13T10:51:39.792Z,7.65
2023-01-13T10:54:13.645Z,7.59
2023-01-13T10:56:43.689Z,7.60
2023-01-13T10:59:14.366Z,7.59
2023-01-13T11:02:03.934Z,7.67
2023-01-13T11:04:39.817Z,7.58
2023-01-13T11:07:19.652Z,7.70
2023-01-13T11:09:47.367Z,7.75
2023-01-13T11:12:35.779Z,7.71
2023-01-13T11:15:05.580Z,7.76
2023-01-13T11:18:18.528Z,7.71
2023-01-13T11:20:47.444Z,7.75
2023-01-13T11:23:27.590Z,7.74
2023-01-13T11:25:58.610Z,7.75
2023-01-13T11:28:35.136Z,7.82
2023-01-13T11:31:25.618Z,7.84
2023-01-13T11:34:24.371Z,7.90
2023-01-13T11:36:56.072Z,7.87
2023-01-13T11:39:54.158Z,7.98
2023-01-13T11:42:30.303Z,8.09
2023-01-13T11:45:21.567Z,8.20
2023-01-13T11:47:52.042Z,8.19
2023-01-13T11:50:51.330Z,8.34
2023-01-13T11:53:52.944Z,8.25
2023-01-13T11:56:42.354Z,8.30
2023-01-13T11:59:19.388Z,8.40
2023-01-13T12:01:54.934Z,8.41
2023-01-13T12:04:24.976Z,8.50
2023-01-13T12:07:13.952Z,8.54
2023-01-13T12:09:49.942Z,8.63
2023-01-13T12:12:38.218Z,8.64
2023-01-13T12:15:21.810Z,8.70
2023-01-13T12:18:30.784Z,8.80
2023-01-13T12:21:19.341Z,8.69
2023-01-13T12:24:05.004Z,8.73
2023-01-13T12:26:35.832Z,8.87
2023-01-13T12:29:08.998Z,8.89
2023-01-13T12:31:37.922Z,8.87
2023-01-13T12:34:20.605Z,9.09
2023-01-13T12:37:06.270Z,9.09
2023-01-13T12:39:52.483Z,9.26
2023-01-13T12:43:02.813Z,9.37
2023-01-13T12:45:30.931Z,9.51
2023-01-13T12:47:58.929Z,9.51
2023-01-13T12:50:25.702Z,9.50
2023-01-13T12:52:59.930Z,9.51
2023-01-13T12:55:35.974Z,9.53
2023-01-13T12:58:03.414Z,9.54
2023-01-13T13:00:42.369Z,9.63
2023-01-13T13:03:17.742Z,9.69
2023-01-13T13:05:51.234Z,9.72
2023-01-13T13:08:45.335Z,9.80
2023-01-13T13:11:35.507Z,10.06
2023-01-13T13:14:04.437Z,10.46
2023-01-13T13:16:31.278Z,10.76
2023-01-13T13:19:20.237Z,11.07
2023-01-13T13:22:12.494Z,11.32
2023-01-13T13:25:02.130Z,11.38
2023-01-13T13:27:32.470Z,11.35
2023-01-13T13:30:03.257Z,11.12
2023-01-13T13:32:55.468Z,11.16
2023-01-13T13:35:44.923Z,11.07
2023-01-13T13:38:49.562Z,10.79
2023-01-13T13:41:45.559Z,10.40
2023-01-13T13:44:37.109Z,10.38
2023-01-13T13:47:06.514Z,10.38
2023-01-13T13:49:58.480Z,10.33
2023-01-13T13:53:05.536Z,10.41
2023-01-13T13:55:35.834Z,10.32
2023-01-13T13:58:08.891Z,10.51
2023-01-13T14:01:18.898Z,10.46
2023-01-13T14:03:47.213Z,10.54
2023-01-13T14:06:22.168Z,10.58
2023-01-13T14:08:50.853Z,10.71
2023-01-13T14:11:27.709Z,10.79
2023-01-13T14:14:03.767Z,10.91
2023-01-13T14:16:32.382Z,11.10
2023-01-13T14:19:01.693Z,11.70
2023-01-13T14:21:30.011Z,12.48
2023-01-13T14:24:16.417Z,12.93
2023-01-13T14:26:53.069Z,13.05
2023-01-13T14:29:23.160Z,13.09
2023-01-13T14:31:51.783Z,13.10
2023-01-13T14:34:32.439Z,12.76
2023-01-13T14:37:01.382Z,12.68
2023-01-13T14:39:38.790Z,12.41
2023-01-13T14:42:12.338Z,12.37
2023-01-13T14:44:39.762Z,12.04
2023-01-13T14:47:17.137Z,11.87
2023-01-13T14:50:08.333Z,11.78
2023-01-13T14:52:37.644Z,11.60
2023-01-13T14:55:33.882Z,11.52
2023-01-13T14:58:22.355Z,11.44
2023-01-13T15:00:50.946Z,11.36
2023-01-13T15:03:19.881Z,11.64
2023-01-13T15:06:11.503Z,11.86
2023-01-13T15:08:39.113Z,11.85
2023-01-13T15:11:06.623Z,11.79
2023-01-13T15:14:09.224Z,11.64
2023-01-13T15:16:37.058Z,11.67
2023-01-13T15:19:04.856Z,11.82
2023-01-13T15:21:32.451Z,12.14
2023-01-13T15:23:59.947Z,12.34
2023-01-13T15:26:28.033Z,12.39
2023-01-13T15:28:55.886Z,12.41
2023-01-13T15:31:23.582Z,12.41
2023-01-13T15:33:51.430Z,12.35
2023-01-13T15:36:27.354Z,12.21
2023-01-13T15:38:55.034Z,11.86
2023-01-13T15:41:43.260Z,11.36
2023-01-13T15:44:32.320Z,10.84
2023-01-13T15:47:00.958Z,10.44
2023-01-13T15:49:37.705Z,10.09
2023-01-13T15:52:12.393Z,9.76
2023-01-13T15:54:40.515Z,9.37
2023-01-13T15:57:12.527Z,9.19
2023-01-13T15:59:40.705Z,8.97
2023-01-13T16:02:12.554Z,8.78
2023-01-13T16:04:43.222Z,8.59
2023-01-13T16:07:14.040Z,8.46
2023-01-13T16:09:42.010Z,8.33
2023-01-13T16:12:09.870Z,8.18
2023-01-13T16:14:37.957Z,8.06
2023-01-13T16:17:40.864Z,7.98
2023-01-13T16:20:15.874Z,7.89
2023-01-13T16:22:43.449Z,7.70
2023-01-13T16:25:16.467Z,7.67
2023-01-13T16:27:44.667Z,7.58
2023-01-13T16:30:50.005Z,7.40
2023-01-13T16:33:17.805Z,7.37
2023-01-13T16:36:10.598Z,7.35
2023-01-13T16:38:33.908Z,7.33
2023-01-13T16:41:01.788Z,7.32
2023-01-13T16:43:29.980Z,7.31
2023-01-13T16:45:58.483Z,7.23
2023-01-13T16:48:25.914Z,7.09
2023-01-13T16:50:54.226Z,7.03
2023-01-13T16:53:22.319Z,6.97
2023-01-13T16:55:50.459Z,6.98
2023-01-13T16:58:18.922Z,6.98
2023-01-13T17:00:47.071Z,6.99
2023-01-13T17:03:16.782Z,6.95
2023-01-13T17:05:46.728Z,6.84
2023-01-13T17:08:36.242Z,6.81
2023-01-13T17:11:04.395Z,6.85
2023-01-13T17:13:32.672Z,6.82
2023-01-13T17:16:00.814Z,6.83
2023-01-13T17:18:29.357Z,6.81
2023-01-13T17:20:58.909Z,6.76
2023-01-13T17:23:26.302Z,6.75
2023-01-13T17:25:54.790Z,6.77
2023-01-13T17:28:22.924Z,6.79
2023-01-13T17:30:51.196Z,6.79
2023-01-13T17:33:19.456Z,6.72
2023-01-13T17:35:47.551Z,6.72
2023-01-13T17:38:17.800Z,6.71
2023-01-13T17:40:45.889Z,6.56
2023-01-13T17:43:14.224Z,6.40
2023-01-13T17:45:44.759Z,6.21
2023-01-13T17:48:13.009Z,6.06
2023-01-13T17:50:46.853Z,5.96
2023-01-13T17:53:15.123Z,5.91
2023-01-13T17:55:49.399Z,5.84
2023-01-13T17:58:17.850Z,5.78
2023-01-13T18:00:46.687Z,5.82
2023-01-13T18:03:15.689Z,5.88
2023-01-13T18:05:44.261Z,5.91
2023-01-13T18:08:12.364Z,5.93
2023-01-13T18:10:40.409Z,5.91
2023-01-13T18:13:09.984Z,5.85
2023-01-13T18:15:38.620Z,5.76
2023-01-13T18:18:06.506Z,5.67
2023-01-13T18:20:52.640Z,5.58
2023-01-13T18:23:39.505Z,5.58
2023-01-13T18:26:38.101Z,5.68
2023-01-13T18:29:05.952Z,5.85
2023-01-13T18:31:34.207Z,5.79
2023-01-13T18:34:02.527Z,5.75
2023-01-13T18:36:31.302Z,5.77
2023-01-13T18:38:59.667Z,5.86
2023-01-13T18:41:45.895Z,5.86
2023-01-13T18:44:13.676Z,5.74
2023-01-13T18:46:43.942Z,5.60
2023-01-13T18:49:11.984Z,5.52
2023-01-13T18:51:40.037Z,5.50
2023-01-13T18:54:08.296Z,5.51
2023-01-13T18:56:36.597Z,5.55
2023-01-13T18:59:04.202Z,5.53
2023-01-13T19:01:32.156Z,5.47
2023-01-13T19:04:02.624Z,5.48
2023-01-13T19:06:32.728Z,5.35
2023-01-13T19:09:08.323Z,5.19
2023-01-13T19:11:38.756Z,5.04
2023-01-13T19:14:06.932Z,4.98
2023-01-13T19:16:35.603Z,5.00
2023-01-13T19:19:03.364Z,5.09
2023-01-13T19:21:31.604Z,5.01
2023-01-13T19:23:59.260Z,4.98
2023-01-13T19:26:27.477Z,4.99
2023-01-13T19:28:55.566Z,4.99
2023-01-13T19:31:23.851Z,4.99
2023-01-13T19:33:51.604Z,4.88
2023-01-13T19:36:19.577Z,4.69
2023-01-13T19:38:48.181Z,4.70
2023-01-13T19:41:33.896Z,4.56
2023-01-13T19:44:20.422Z,4.56
2023-01-13T19:46:48.495Z,4.60
2023-01-13T19:49:15.638Z,4.57
2023-01-13T19:51:44.278Z,4.54
2023-01-13T19:54:16.214Z,4.58
2023-01-13T19:56:43.983Z,4.64
2023-01-13T19:59:13.549Z,4.69
2023-01-13T20:01:41.380Z,4.63
2023-01-13T20:04:14.390Z,4.47
2023-01-13T20:06:42.077Z,4.51
2023-01-13T20:09:11.013Z,4.54
2023-01-13T20:11:40.321Z,4.50
2023-01-13T20:14:08.180Z,4.45
2023-01-13T20:16:36.203Z,4.45
2023-01-13T20:19:04.305Z,4.46
2023-01-13T20:21:31.990Z,4.38
2023-01-13T20:23:59.894Z,4.40
2023-01-13T20:26:28.454Z,4.27
2023-01-13T20:28:56.615Z,4.21
2023-01-13T20:31:24.585Z,4.11
2023-01-13T20:33:53.390Z,4.21
2023-01-13T20:36:31.764Z,4.29
2023-01-13T20:39:02.417Z,4.37
2023-01-13T20:41:48.581Z,4.41
2023-01-13T20:44:19.623Z,4.46
2023-01-13T20:46:50.512Z,4.51
2023-01-13T20:49:27.093Z,4.57
2023-01-13T20:51:55.788Z,4.48
2023-01-13T20:54:23.836Z,4.41
2023-01-13T20:56:52.273Z,4.37
2023-01-13T20:59:20.724Z,4.28
2023-01-13T21:01:48.629Z,4.26
2023-01-13T21:04:16.502Z,4.18
2023-01-13T21:06:44.184Z,4.16
2023-01-13T21:09:12.293Z,4.15
2023-01-13T21:11:58.470Z,4.20
2023-01-13T21:14:45.249Z,4.17
2023-01-13T21:17:39.254Z,4.08
2023-01-13T21:20:12.855Z,4.06
2023-01-13T21:22:42.356Z,3.97
2023-01-13T21:25:12.443Z,3.91
2023-01-13T21:27:40.138Z,3.86
2023-01-13T21:30:14.799Z,3.91
2023-01-13T21:32:42.501Z,3.85
2023-01-13T21:35:12.180Z,3.81
2023-01-13T21:37:39.433Z,3.84
2023-01-13T21:40:10.879Z,3.81
2023-01-13T21:42:56.482Z,3.91
2023-01-13T21:45:42.881Z,3.73
2023-01-13T21:48:10.048Z,3.79
2023-01-13T21:50:40.514Z,3.83
2023-01-13T21:53:08.100Z,3.85
2023-01-13T21:55:35.709Z,3.92
2023-01-13T21:58:11.899Z,3.92
2023-01-13T22:00:43.668Z,3.80
2023-01-13T22:03:12.011Z,3.83
2023-01-13T22:05:39.918Z,3.83
2023-01-13T22:08:08.639Z,3.75
2023-01-13T22:10:36.814Z,3.57
2023-01-13T22:13:28.651Z,3.49
2023-01-13T22:15:57.080Z,3.52
2023-01-13T22:18:25.307Z,3.53
2023-01-13T22:20:54.008Z,3.56
2023-01-13T22:23:22.247Z,3.58
2023-01-13T22:25:50.459Z,3.48
2023-01-13T22:28:24.196Z,3.37
2023-01-13T22:30:53.669Z,3.25
2023-01-13T22:33:21.773Z,3.10
2023-01-13T22:35:56.750Z,3.00
2023-01-13T22:38:24.950Z,2.99
2023-01-13T22:41:00.114Z,2.95
2023-01-13T22:43:31.085Z,2.99
2023-01-13T22:46:23.081Z,3.06
2023-01-13T22:48:54.466Z,3.15
2023-01-13T22:51:22.999Z,3.24
2023-01-13T22:53:51.351Z,3.17
2023-01-13T22:56:21.252Z,3.02
2023-01-13T22:58:49.487Z,2.92
2023-01-13T23:01:18.078Z,3.03
2023-01-13T23:03:47.704Z,3.03
2023-01-13T23:06:15.928Z,3.14
2023-01-13T23:08:44.501Z,3.13
2023-01-13T23:11:13.631Z,3.09
2023-01-13T23:13:42.984Z,3.12
2023-01-13T23:16:15.656Z,3.17
2023-01-13T23:18:48.165Z,3.10
2023-01-13T23:21:38.037Z,3.11
2023-01-13T23:24:07.257Z,3.01
2023-01-13T23:26:34.681Z,2.91
2023-01-13T23:29:03.489Z,2.84
2023-01-13T23:31:31.862Z,2.82
2023-01-13T23:34:01.031Z,2.82
2023-01-13T23:36:29.212Z,2.85
2023-01-13T23:38:58.112Z,2.79
2023-01-13T23:41:27.069Z,2.68
2023-01-13T23:44:15.472Z,2.56
2023-01-13T23:46:43.486Z,2.57
2023-01-13T23:49:11.899Z,2.37
2023-01-13T23:51:40.114Z,2.31
2023-01-13T23:54:08.277Z,2.37
2023-01-13T23:56:39.507Z,2.45
2023-01-13T23:59:07.757Z,2.46
